sensor_id;sensor_type;location;lat;lon;timestamp;temperature;humidity
28530;DHT22;15737;49.760;6.632;2024-01-15T00:01:33;-2.60;99.90
28530;DHT22;15737;49.760;6.632;2024-01-15T00:04:01;-2.60;99.90
28530;DHT22;15737;49.760;6.632;2024-01-15T00:06:27;-2.60;99.90
28530;DHT22;15737;49.760;6.632;2024-01-15T00:08:58;-2.50;99.90
28530;DHT22;15737;49.760;6.632;2024-01-15T00:11:23;-2.40;99.90
28530;DHT22;15737;49.760;6.632;2024-01-15T00:13:49;-2.40;99.90
28530;DHT22;15737;49.760;6.632;2024-01-15T00:16:14;-2.40;99.90
28530;DHT22;15737;49.760;6.632;2024-01-15T00:18:40;-2.40;99.90
28530;DHT22;15737;49.760;6.632;2024-01-15T00:21:05;-2.50;99.90
28530;DHT22;15737;49.760;6.632;2024-01-15T00:23:31;-2.50;99.90
28530;DHT22;15737;49.760;6.632;2024-01-15T00:25:56;-2.50;99.90
28530;DHT22;15737;49.760;6.632;2024-01-15T00:28:22;-2.50;99.90
28530;DHT22;15737;49.760;6.632;2024-01-15T00:30:47;-2.50;99.90
28530;DHT22;15737;49.760;6.632;2024-01-15T00:33:13;-2.50;99.90
28530;DHT22;15737;49.760;6.632;2024-01-15T00:35:40;-2.50;99.90
28530;DHT22;15737;49.760;6.632;2024-01-15T00:38:05;-2.50;99.90
28530;DHT22;15737;49.760;6.632;2024-01-15T00:43:03;-2.50;99.90
28530;DHT22;15737;49.760;6.632;2024-01-15T00:45:29;-2.40;99.90
28530;DHT22;15737;49.760;6.632;2024-01-15T00:47:54;-2.40;99.90
28530;DHT22;15737;49.760;6.632;2024-01-15T00:50:21;-2.40;99.90
28530;DHT22;15737;49.760;6.632;2024-01-15T00:52:47;-2.40;99.90
28530;DHT22;15737;49.760;6.632;2024-01-15T00:55:13;-2.40;99.90
28530;DHT22;15737;49.760;6.632;2024-01-15T00:57:38;-2.40;99.90
28530;DHT22;15737;49.760;6.632;2024-01-15T01:00:04;-2.40;99.90
28530;DHT22;15737;49.760;6.632;2024-01-15T01:02:30;-2.40;99.90
28530;DHT22;15737;49.760;6.632;2024-01-15T01:04:55;-2.40;99.90
28530;DHT22;15737;49.760;6.632;2024-01-15T01:07:21;-2.40;99.90
28530;DHT22;15737;49.760;6.632;2024-01-15T01:09:47;-2.40;99.90
28530;DHT22;15737;49.760;6.632;2024-01-15T01:12:13;-2.40;99.90
28530;DHT22;15737;49.760;6.632;2024-01-15T01:14:38;-2.40;99.90
28530;DHT22;15737;49.760;6.632;2024-01-15T01:17:04;-2.40;99.90
28530;DHT22;15737;49.760;6.632;2024-01-15T01:19:30;-2.40;99.90
28530;DHT22;15737;49.760;6.632;2024-01-15T01:21:55;-2.40;99.90
28530;DHT22;15737;49.760;6.632;2024-01-15T01:24:21;-2.40;99.90
28530;DHT22;15737;49.760;6.632;2024-01-15T01:26:46;-2.40;99.90
28530;DHT22;15737;49.760;6.632;2024-01-15T01:29:12;-2.40;99.90
28530;DHT22;15737;49.760;6.632;2024-01-15T01:31:45;-2.40;99.90
28530;DHT22;15737;49.760;6.632;2024-01-15T01:34:13;-2.40;99.90
28530;DHT22;15737;49.760;6.632;2024-01-15T01:36:39;-2.40;99.90
28530;DHT22;15737;49.760;6.632;2024-01-15T01:39:04;-2.40;99.90
28530;DHT22;15737;49.760;6.632;2024-01-15T01:41:30;-2.40;99.90
28530;DHT22;15737;49.760;6.632;2024-01-15T01:43:56;-2.40;99.90
28530;DHT22;15737;49.760;6.632;2024-01-15T01:46:23;-2.30;99.90
28530;DHT22;15737;49.760;6.632;2024-01-15T01:48:48;-2.30;99.90
28530;DHT22;15737;49.760;6.632;2024-01-15T01:51:14;-2.30;99.90
28530;DHT22;15737;49.760;6.632;2024-01-15T01:53:40;-2.30;99.90
28530;DHT22;15737;49.760;6.632;2024-01-15T01:56:07;-2.30;99.90
28530;DHT22;15737;49.760;6.632;2024-01-15T01:58:33;-2.20;99.90
28530;DHT22;15737;49.760;6.632;2024-01-15T02:00:59;-2.10;99.90
28530;DHT22;15737;49.760;6.632;2024-01-15T02:03:26;-2.00;99.90
28530;DHT22;15737;49.760;6.632;2024-01-15T02:05:52;-2.10;99.90
28530;DHT22;15737;49.760;6.632;2024-01-15T02:08:18;-2.20;99.90
28530;DHT22;15737;49.760;6.632;2024-01-15T02:10:44;-2.20;99.90
28530;DHT22;15737;49.760;6.632;2024-01-15T02:13:10;-2.20;99.90
28530;DHT22;15737;49.760;6.632;2024-01-15T02:15:35;-2.20;99.90
28530;DHT22;15737;49.760;6.632;2024-01-15T02:18:03;-2.20;99.90
28530;DHT22;15737;49.760;6.632;2024-01-15T02:20:29;-2.10;99.90
28530;DHT22;15737;49.760;6.632;2024-01-15T02:23:11;-2.10;99.90
28530;DHT22;15737;49.760;6.632;2024-01-15T02:25:42;-2.20;99.90
28530;DHT22;15737;49.760;6.632;2024-01-15T02:28:10;-2.20;99.90
28530;DHT22;15737;49.760;6.632;2024-01-15T02:30:41;-2.20;99.90
28530;DHT22;15737;49.760;6.632;2024-01-15T02:33:07;-2.20;99.90
28530;DHT22;15737;49.760;6.632;2024-01-15T02:35:33;-2.10;99.90
28530;DHT22;15737;49.760;6.632;2024-01-15T02:37:59;-2.10;99.90
28530;DHT22;15737;49.760;6.632;2024-01-15T02:40:24;-2.10;99.90
28530;DHT22;15737;49.760;6.632;2024-01-15T02:42:50;-2.10;99.90
28530;DHT22;15737;49.760;6.632;2024-01-15T02:45:17;-2.10;99.90
28530;DHT22;15737;49.760;6.632;2024-01-15T02:47:42;-2.10;99.90
28530;DHT22;15737;49.760;6.632;2024-01-15T02:50:08;-2.10;99.90
28530;DHT22;15737;49.760;6.632;2024-01-15T02:52:34;-2.00;99.90
28530;DHT22;15737;49.760;6.632;2024-01-15T02:55:00;-1.90;99.90
28530;DHT22;15737;49.760;6.632;2024-01-15T02:57:25;-1.80;99.90
28530;DHT22;15737;49.760;6.632;2024-01-15T02:59:56;-1.80;99.90
28530;DHT22;15737;49.760;6.632;2024-01-15T03:02:22;-1.80;99.90
28530;DHT22;15737;49.760;6.632;2024-01-15T03:04:47;-1.80;99.90
28530;DHT22;15737;49.760;6.632;2024-01-15T03:07:13;-1.80;99.90
28530;DHT22;15737;49.760;6.632;2024-01-15T03:09:38;-1.80;99.90
28530;DHT22;15737;49.760;6.632;2024-01-15T03:12:04;-1.70;99.90
28530;DHT22;15737;49.760;6.632;2024-01-15T03:14:30;-1.70;99.90
28530;DHT22;15737;49.760;6.632;2024-01-15T03:19:26;-1.80;99.90
28530;DHT22;15737;49.760;6.632;2024-01-15T03:21:51;-1.80;99.90
28530;DHT22;15737;49.760;6.632;2024-01-15T03:24:17;-1.70;99.90
28530;DHT22;15737;49.760;6.632;2024-01-15T03:26:42;-1.80;99.90
28530;DHT22;15737;49.760;6.632;2024-01-15T03:29:08;-1.80;99.90
28530;DHT22;15737;49.760;6.632;2024-01-15T03:31:33;-1.80;99.90
28530;DHT22;15737;49.760;6.632;2024-01-15T03:33:59;-1.80;99.90
28530;DHT22;15737;49.760;6.632;2024-01-15T03:36:24;-1.80;99.90
28530;DHT22;15737;49.760;6.632;2024-01-15T03:38:50;-1.80;99.90
28530;DHT22;15737;49.760;6.632;2024-01-15T03:41:15;-1.70;99.90
28530;DHT22;15737;49.760;6.632;2024-01-15T03:43:41;-1.70;99.90
28530;DHT22;15737;49.760;6.632;2024-01-15T03:46:07;-1.70;99.90
28530;DHT22;15737;49.760;6.632;2024-01-15T03:48:32;-1.60;99.90
28530;DHT22;15737;49.760;6.632;2024-01-15T03:50:58;-1.70;99.90
28530;DHT22;15737;49.760;6.632;2024-01-15T03:53:23;-1.70;99.90
28530;DHT22;15737;49.760;6.632;2024-01-15T03:55:49;-1.70;99.90
28530;DHT22;15737;49.760;6.632;2024-01-15T03:58:15;-1.60;99.90
28530;DHT22;15737;49.760;6.632;2024-01-15T04:00:41;-1.60;99.90
28530;DHT22;15737;49.760;6.632;2024-01-15T04:03:07;-1.60;99.90
28530;DHT22;15737;49.760;6.632;2024-01-15T04:05:32;-1.60;99.90
28530;DHT22;15737;49.760;6.632;2024-01-15T04:07:58;-1.60;99.90
28530;DHT22;15737;49.760;6.632;2024-01-15T04:10:23;-1.60;99.90
28530;DHT22;15737;49.760;6.632;2024-01-15T04:12:49;-1.60;99.90
28530;DHT22;15737;49.760;6.632;2024-01-15T04:15:15;-1.60;99.90
28530;DHT22;15737;49.760;6.632;2024-01-15T04:17:40;-1.60;99.90
28530;DHT22;15737;49.760;6.632;2024-01-15T04:20:06;-1.60;99.90
28530;DHT22;15737;49.760;6.632;2024-01-15T04:22:35;-1.50;99.90
28530;DHT22;15737;49.760;6.632;2024-01-15T04:25:01;-1.60;99.90
28530;DHT22;15737;49.760;6.632;2024-01-15T04:27:26;-1.60;99.90
28530;DHT22;15737;49.760;6.632;2024-01-15T04:29:52;-1.60;99.90
28530;DHT22;15737;49.760;6.632;2024-01-15T04:32:18;-1.60;99.90
28530;DHT22;15737;49.760;6.632;2024-01-15T04:34:43;-1.60;99.90
28530;DHT22;15737;49.760;6.632;2024-01-15T04:37:09;-1.60;99.90
28530;DHT22;15737;49.760;6.632;2024-01-15T04:39:34;-1.60;99.90
28530;DHT22;15737;49.760;6.632;2024-01-15T04:42:00;-1.60;99.90
28530;DHT22;15737;49.760;6.632;2024-01-15T04:44:25;-1.60;99.90
28530;DHT22;15737;49.760;6.632;2024-01-15T04:46:51;-1.60;99.90
28530;DHT22;15737;49.760;6.632;2024-01-15T04:49:16;-1.60;99.90
28530;DHT22;15737;49.760;6.632;2024-01-15T04:51:42;-1.60;99.90
28530;DHT22;15737;49.760;6.632;2024-01-15T04:54:07;-1.70;99.90
28530;DHT22;15737;49.760;6.632;2024-01-15T04:56:33;-1.70;99.90
28530;DHT22;15737;49.760;6.632;2024-01-15T04:58:58;-1.70;99.90
28530;DHT22;15737;49.760;6.632;2024-01-15T05:01:24;-1.70;99.90
28530;DHT22;15737;49.760;6.632;2024-01-15T05:03:49;-1.70;99.90
28530;DHT22;15737;49.760;6.632;2024-01-15T05:06:15;-1.70;99.90
28530;DHT22;15737;49.760;6.632;2024-01-15T05:08:41;-1.70;99.90
28530;DHT22;15737;49.760;6.632;2024-01-15T05:11:06;-1.70;99.90
28530;DHT22;15737;49.760;6.632;2024-01-15T05:13:32;-1.70;99.90
28530;DHT22;15737;49.760;6.632;2024-01-15T05:15:57;-1.70;99.90
28530;DHT22;15737;49.760;6.632;2024-01-15T05:18:23;-1.70;99.90
28530;DHT22;15737;49.760;6.632;2024-01-15T05:20:48;-1.70;99.90
28530;DHT22;15737;49.760;6.632;2024-01-15T05:23:14;-1.70;99.90
28530;DHT22;15737;49.760;6.632;2024-01-15T05:25:39;-1.70;99.90
28530;DHT22;15737;49.760;6.632;2024-01-15T05:28:05;-1.60;99.90
28530;DHT22;15737;49.760;6.632;2024-01-15T05:30:31;-1.60;99.90
28530;DHT22;15737;49.760;6.632;2024-01-15T05:32:56;-1.60;99.90
28530;DHT22;15737;49.760;6.632;2024-01-15T05:35:23;-1.60;99.90
28530;DHT22;15737;49.760;6.632;2024-01-15T05:37:48;-1.60;99.90
28530;DHT22;15737;49.760;6.632;2024-01-15T05:40:14;-1.60;99.90
28530;DHT22;15737;49.760;6.632;2024-01-15T05:42:40;-1.60;99.90
28530;DHT22;15737;49.760;6.632;2024-01-15T05:45:06;-1.60;99.90
28530;DHT22;15737;49.760;6.632;2024-01-15T05:47:31;-1.60;99.90
28530;DHT22;15737;49.760;6.632;2024-01-15T05:49:57;-1.60;99.90
28530;DHT22;15737;49.760;6.632;2024-01-15T05:52:23;-1.60;99.90
28530;DHT22;15737;49.760;6.632;2024-01-15T05:54:52;-1.60;99.90
28530;DHT22;15737;49.760;6.632;2024-01-15T05:57:20;-1.60;99.90
28530;DHT22;15737;49.760;6.632;2024-01-15T05:59:48;-1.60;99.90
28530;DHT22;15737;49.760;6.632;2024-01-15T06:02:23;-1.50;99.90
28530;DHT22;15737;49.760;6.632;2024-01-15T06:04:48;-1.50;99.90
28530;DHT22;15737;49.760;6.632;2024-01-15T06:07:14;-1.50;99.90
28530;DHT22;15737;49.760;6.632;2024-01-15T06:09:39;-1.50;99.90
28530;DHT22;15737;49.760;6.632;2024-01-15T06:12:06;-1.50;99.90
28530;DHT22;15737;49.760;6.632;2024-01-15T06:14:51;-1.50;99.90
28530;DHT22;15737;49.760;6.632;2024-01-15T06:17:17;-1.50;99.90
28530;DHT22;15737;49.760;6.632;2024-01-15T06:19:43;-1.50;99.90
28530;DHT22;15737;49.760;6.632;2024-01-15T06:22:08;-1.50;99.90
28530;DHT22;15737;49.760;6.632;2024-01-15T06:24:34;-1.50;99.90
28530;DHT22;15737;49.760;6.632;2024-01-15T06:26:59;-1.40;99.90
28530;DHT22;15737;49.760;6.632;2024-01-15T06:29:26;-1.40;99.90
28530;DHT22;15737;49.760;6.632;2024-01-15T06:31:52;-1.40;99.90
28530;DHT22;15737;49.760;6.632;2024-01-15T06:34:18;-1.40;99.90
28530;DHT22;15737;49.760;6.632;2024-01-15T06:36:43;-1.30;99.90
28530;DHT22;15737;49.760;6.632;2024-01-15T06:39:09;-1.40;99.90
28530;DHT22;15737;49.760;6.632;2024-01-15T06:41:35;-1.30;99.90
28530;DHT22;15737;49.760;6.632;2024-01-15T06:44:06;-1.30;99.90
28530;DHT22;15737;49.760;6.632;2024-01-15T06:46:32;-1.30;99.90
28530;DHT22;15737;49.760;6.632;2024-01-15T06:48:57;-1.30;99.90
28530;DHT22;15737;49.760;6.632;2024-01-15T06:51:23;-1.30;99.90
28530;DHT22;15737;49.760;6.632;2024-01-15T06:53:48;-1.30;99.90
28530;DHT22;15737;49.760;6.632;2024-01-15T06:56:14;-1.20;99.90
28530;DHT22;15737;49.760;6.632;2024-01-15T06:58:39;-1.30;99.90
28530;DHT22;15737;49.760;6.632;2024-01-15T07:01:05;-1.30;99.90
28530;DHT22;15737;49.760;6.632;2024-01-15T07:03:31;-1.20;99.90
28530;DHT22;15737;49.760;6.632;2024-01-15T07:05:56;-1.20;99.90
28530;DHT22;15737;49.760;6.632;2024-01-15T07:08:22;-1.20;99.90
28530;DHT22;15737;49.760;6.632;2024-01-15T07:10:47;-1.20;99.90
28530;DHT22;15737;49.760;6.632;2024-01-15T07:13:13;-1.20;99.90
28530;DHT22;15737;49.760;6.632;2024-01-15T07:15:38;-1.20;99.90
28530;DHT22;15737;49.760;6.632;2024-01-15T07:18:04;-1.20;99.90
28530;DHT22;15737;49.760;6.632;2024-01-15T07:20:30;-1.20;99.90
28530;DHT22;15737;49.760;6.632;2024-01-15T07:22:55;-1.20;99.90
28530;DHT22;15737;49.760;6.632;2024-01-15T07:25:22;-1.20;99.90
28530;DHT22;15737;49.760;6.632;2024-01-15T07:27:47;-1.20;99.90
28530;DHT22;15737;49.760;6.632;2024-01-15T07:30:13;-1.20;99.90
28530;DHT22;15737;49.760;6.632;2024-01-15T07:32:39;-1.20;99.90
28530;DHT22;15737;49.760;6.632;2024-01-15T07:35:05;-1.20;99.90
28530;DHT22;15737;49.760;6.632;2024-01-15T07:37:31;-1.20;99.90
28530;DHT22;15737;49.760;6.632;2024-01-15T07:39:56;-1.20;99.90
28530;DHT22;15737;49.760;6.632;2024-01-15T07:42:22;-1.20;99.90
28530;DHT22;15737;49.760;6.632;2024-01-15T07:45:03;-1.20;99.90
28530;DHT22;15737;49.760;6.632;2024-01-15T07:47:28;-1.20;99.90
28530;DHT22;15737;49.760;6.632;2024-01-15T07:49:54;-1.20;99.90
28530;DHT22;15737;49.760;6.632;2024-01-15T07:52:19;-1.10;99.90
28530;DHT22;15737;49.760;6.632;2024-01-15T07:54:45;-1.10;99.90
28530;DHT22;15737;49.760;6.632;2024-01-15T07:57:11;-1.10;99.90
28530;DHT22;15737;49.760;6.632;2024-01-15T07:59:36;-1.10;99.90
28530;DHT22;15737;49.760;6.632;2024-01-15T08:02:02;-1.10;99.90
28530;DHT22;15737;49.760;6.632;2024-01-15T08:04:28;-1.10;99.90
28530;DHT22;15737;49.760;6.632;2024-01-15T08:06:53;-1.00;99.90
28530;DHT22;15737;49.760;6.632;2024-01-15T08:09:19;-1.00;99.90
28530;DHT22;15737;49.760;6.632;2024-01-15T08:11:44;-1.00;99.90
28530;DHT22;15737;49.760;6.632;2024-01-15T08:14:11;-1.00;99.90
28530;DHT22;15737;49.760;6.632;2024-01-15T08:16:37;-1.00;99.90
28530;DHT22;15737;49.760;6.632;2024-01-15T08:19:02;-0.90;99.90
28530;DHT22;15737;49.760;6.632;2024-01-15T08:21:28;-0.90;99.90
28530;DHT22;15737;49.760;6.632;2024-01-15T08:23:56;-0.90;99.90
28530;DHT22;15737;49.760;6.632;2024-01-15T08:26:22;-0.90;99.90
28530;DHT22;15737;49.760;6.632;2024-01-15T08:28:48;-0.90;99.90
28530;DHT22;15737;49.760;6.632;2024-01-15T08:31:15;-0.90;99.90
28530;DHT22;15737;49.760;6.632;2024-01-15T08:33:41;-0.90;99.90
28530;DHT22;15737;49.760;6.632;2024-01-15T08:36:06;-0.80;99.90
28530;DHT22;15737;49.760;6.632;2024-01-15T08:38:33;-0.80;99.90
28530;DHT22;15737;49.760;6.632;2024-01-15T08:40:59;-0.80;99.90
28530;DHT22;15737;49.760;6.632;2024-01-15T08:43:26;-0.80;99.90
28530;DHT22;15737;49.760;6.632;2024-01-15T08:45:52;-0.80;99.90
28530;DHT22;15737;49.760;6.632;2024-01-15T08:48:17;-0.80;99.90
28530;DHT22;15737;49.760;6.632;2024-01-15T08:50:43;-0.80;99.90
28530;DHT22;15737;49.760;6.632;2024-01-15T08:53:11;-0.80;99.90
28530;DHT22;15737;49.760;6.632;2024-01-15T08:55:37;-0.90;99.90
28530;DHT22;15737;49.760;6.632;2024-01-15T08:58:02;-0.90;99.90
28530;DHT22;15737;49.760;6.632;2024-01-15T09:00:28;-0.90;99.90
28530;DHT22;15737;49.760;6.632;2024-01-15T09:02:54;-0.90;99.90
28530;DHT22;15737;49.760;6.632;2024-01-15T09:05:19;-0.70;99.90
28530;DHT22;15737;49.760;6.632;2024-01-15T09:07:45;-0.70;99.90
28530;DHT22;15737;49.760;6.632;2024-01-15T09:10:11;-0.60;99.90
28530;DHT22;15737;49.760;6.632;2024-01-15T09:12:37;-0.60;99.90
28530;DHT22;15737;49.760;6.632;2024-01-15T09:15:02;-0.50;99.90
28530;DHT22;15737;49.760;6.632;2024-01-15T09:17:32;-0.40;99.90
28530;DHT22;15737;49.760;6.632;2024-01-15T09:19:57;-0.30;99.90
28530;DHT22;15737;49.760;6.632;2024-01-15T09:22:23;-0.30;99.90
28530;DHT22;15737;49.760;6.632;2024-01-15T09:24:48;-0.30;99.90
28530;DHT22;15737;49.760;6.632;2024-01-15T09:27:14;-0.30;99.90
28530;DHT22;15737;49.760;6.632;2024-01-15T09:29:40;-0.20;99.90
28530;DHT22;15737;49.760;6.632;2024-01-15T09:32:07;-0.20;99.90
28530;DHT22;15737;49.760;6.632;2024-01-15T09:34:34;-0.20;99.90
28530;DHT22;15737;49.760;6.632;2024-01-15T09:36:59;-0.10;99.90
28530;DHT22;15737;49.760;6.632;2024-01-15T09:39:26;-0.10;99.90
28530;DHT22;15737;49.760;6.632;2024-01-15T09:41:53;-0.10;99.90
28530;DHT22;15737;49.760;6.632;2024-01-15T09:46:58;-0.10;99.90
28530;DHT22;15737;49.760;6.632;2024-01-15T09:49:24;-0.10;99.90
28530;DHT22;15737;49.760;6.632;2024-01-15T09:51:50;-0.20;99.90
28530;DHT22;15737;49.760;6.632;2024-01-15T09:54:16;-0.30;99.90
28530;DHT22;15737;49.760;6.632;2024-01-15T09:56:45;-0.30;99.90
28530;DHT22;15737;49.760;6.632;2024-01-15T09:59:16;-0.20;99.90
28530;DHT22;15737;49.760;6.632;2024-01-15T10:04:27;-0.20;99.90
28530;DHT22;15737;49.760;6.632;2024-01-15T10:06:54;-0.20;99.90
28530;DHT22;15737;49.760;6.632;2024-01-15T10:09:21;-0.10;99.90
28530;DHT22;15737;49.760;6.632;2024-01-15T10:11:46;0.10;99.90
28530;DHT22;15737;49.760;6.632;2024-01-15T10:14:27;0.10;99.90
28530;DHT22;15737;49.760;6.632;2024-01-15T10:16:53;0.10;99.90
28530;DHT22;15737;49.760;6.632;2024-01-15T10:19:18;0.10;99.90
28530;DHT22;15737;49.760;6.632;2024-01-15T10:21:44;0.10;99.90
28530;DHT22;15737;49.760;6.632;2024-01-15T10:24:09;0.30;99.90
28530;DHT22;15737;49.760;6.632;2024-01-15T10:26:35;0.40;99.90
28530;DHT22;15737;49.760;6.632;2024-01-15T10:29:00;0.50;99.90
28530;DHT22;15737;49.760;6.632;2024-01-15T10:31:26;0.40;99.90
28530;DHT22;15737;49.760;6.632;2024-01-15T10:33:52;0.40;99.90
28530;DHT22;15737;49.760;6.632;2024-01-15T10:36:18;0.50;99.90
28530;DHT22;15737;49.760;6.632;2024-01-15T10:38:44;0.50;99.90
28530;DHT22;15737;49.760;6.632;2024-01-15T10:43:49;0.60;99.90
28530;DHT22;15737;49.760;6.632;2024-01-15T10:46:15;0.50;99.90
28530;DHT22;15737;49.760;6.632;2024-01-15T10:48:41;0.40;99.90
28530;DHT22;15737;49.760;6.632;2024-01-15T10:51:06;0.30;99.90
28530;DHT22;15737;49.760;6.632;2024-01-15T10:53:38;0.40;99.90
28530;DHT22;15737;49.760;6.632;2024-01-15T10:58:44;0.60;99.90
28530;DHT22;15737;49.760;6.632;2024-01-15T11:01:10;0.70;99.90
28530;DHT22;15737;49.760;6.632;2024-01-15T11:03:36;0.70;99.90
28530;DHT22;15737;49.760;6.632;2024-01-15T11:06:02;0.70;99.90
28530;DHT22;15737;49.760;6.632;2024-01-15T11:08:29;0.80;99.90
28530;DHT22;15737;49.760;6.632;2024-01-15T11:10:55;1.50;99.90
28530;DHT22;15737;49.760;6.632;2024-01-15T11:16:03;2.70;99.90
28530;DHT22;15737;49.760;6.632;2024-01-15T11:18:31;2.60;99.90
28530;DHT22;15737;49.760;6.632;2024-01-15T11:23:55;2.30;99.90
28530;DHT22;15737;49.760;6.632;2024-01-15T11:26:43;2.30;99.90
28530;DHT22;15737;49.760;6.632;2024-01-15T11:34:06;2.00;99.90
28530;DHT22;15737;49.760;6.632;2024-01-15T11:41:58;1.90;99.90
28530;DHT22;15737;49.760;6.632;2024-01-15T11:44:24;1.90;99.90
28530;DHT22;15737;49.760;6.632;2024-01-15T11:50:05;2.40;99.90
28530;DHT22;15737;49.760;6.632;2024-01-15T11:52:36;2.70;99.90
28530;DHT22;15737;49.760;6.632;2024-01-15T11:55:19;2.80;99.90
28530;DHT22;15737;49.760;6.632;2024-01-15T11:57:52;2.90;99.90
28530;DHT22;15737;49.760;6.632;2024-01-15T12:00:20;2.70;99.90
28530;DHT22;15737;49.760;6.632;2024-01-15T12:02:47;2.60;99.90
28530;DHT22;15737;49.760;6.632;2024-01-15T12:05:14;2.60;99.90
28530;DHT22;15737;49.760;6.632;2024-01-15T12:07:41;3.00;99.90
28530;DHT22;15737;49.760;6.632;2024-01-15T12:10:20;3.40;99.90
28530;DHT22;15737;49.760;6.632;2024-01-15T12:13:00;4.60;99.90
28530;DHT22;15737;49.760;6.632;2024-01-15T12:15:30;5.00;99.90
28530;DHT22;15737;49.760;6.632;2024-01-15T12:17:57;5.10;99.90
28530;DHT22;15737;49.760;6.632;2024-01-15T12:20:24;5.70;99.90
28530;DHT22;15737;49.760;6.632;2024-01-15T12:22:53;6.10;99.90
28530;DHT22;15737;49.760;6.632;2024-01-15T12:25:29;6.40;99.90
28530;DHT22;15737;49.760;6.632;2024-01-15T12:27:56;6.20;99.90
28530;DHT22;15737;49.760;6.632;2024-01-15T12:30:22;6.50;99.90
28530;DHT22;15737;49.760;6.632;2024-01-15T12:32:47;6.70;99.90
28530;DHT22;15737;49.760;6.632;2024-01-15T12:35:14;6.90;99.90
28530;DHT22;15737;49.760;6.632;2024-01-15T12:37:40;7.10;99.90
28530;DHT22;15737;49.760;6.632;2024-01-15T12:40:07;7.70;99.90
28530;DHT22;15737;49.760;6.632;2024-01-15T12:42:41;8.30;99.90
28530;DHT22;15737;49.760;6.632;2024-01-15T12:45:07;8.60;99.90
28530;DHT22;15737;49.760;6.632;2024-01-15T12:47:33;8.10;99.90
28530;DHT22;15737;49.760;6.632;2024-01-15T12:52:29;7.30;99.90
28530;DHT22;15737;49.760;6.632;2024-01-15T12:54:55;6.70;99.90
28530;DHT22;15737;49.760;6.632;2024-01-15T12:57:21;6.30;99.90
28530;DHT22;15737;49.760;6.632;2024-01-15T12:59:47;6.80;99.90
28530;DHT22;15737;49.760;6.632;2024-01-15T13:02:13;7.50;99.90
28530;DHT22;15737;49.760;6.632;2024-01-15T13:04:39;7.80;99.90
28530;DHT22;15737;49.760;6.632;2024-01-15T13:07:06;8.00;99.90
28530;DHT22;15737;49.760;6.632;2024-01-15T13:09:32;7.50;99.90
28530;DHT22;15737;49.760;6.632;2024-01-15T13:11:57;6.60;99.90
28530;DHT22;15737;49.760;6.632;2024-01-15T13:14:23;6.30;99.90
28530;DHT22;15737;49.760;6.632;2024-01-15T13:19:25;5.60;99.90
28530;DHT22;15737;49.760;6.632;2024-01-15T13:21:58;4.80;99.90
28530;DHT22;15737;49.760;6.632;2024-01-15T13:24:25;4.20;99.90
28530;DHT22;15737;49.760;6.632;2024-01-15T13:26:50;3.80;99.90
28530;DHT22;15737;49.760;6.632;2024-01-15T13:29:16;3.50;99.90
28530;DHT22;15737;49.760;6.632;2024-01-15T13:31:44;3.20;99.90
28530;DHT22;15737;49.760;6.632;2024-01-15T13:34:11;2.90;99.90
28530;DHT22;15737;49.760;6.632;2024-01-15T13:36:37;2.80;99.90
28530;DHT22;15737;49.760;6.632;2024-01-15T13:39:04;2.70;99.90
28530;DHT22;15737;49.760;6.632;2024-01-15T13:41:34;2.60;99.90
28530;DHT22;15737;49.760;6.632;2024-01-15T13:44:00;2.40;99.90
28530;DHT22;15737;49.760;6.632;2024-01-15T13:46:25;2.40;99.90
28530;DHT22;15737;49.760;6.632;2024-01-15T13:48:55;2.40;99.90
28530;DHT22;15737;49.760;6.632;2024-01-15T13:51:23;2.50;99.90
28530;DHT22;15737;49.760;6.632;2024-01-15T13:53:49;2.50;99.90
28530;DHT22;15737;49.760;6.632;2024-01-15T13:56:15;2.60;99.90
28530;DHT22;15737;49.760;6.632;2024-01-15T13:58:41;2.60;99.90
28530;DHT22;15737;49.760;6.632;2024-01-15T14:01:08;2.60;99.90
28530;DHT22;15737;49.760;6.632;2024-01-15T14:03:33;2.60;99.90
28530;DHT22;15737;49.760;6.632;2024-01-15T14:05:59;2.60;99.90
28530;DHT22;15737;49.760;6.632;2024-01-15T14:08:25;2.50;99.90
28530;DHT22;15737;49.760;6.632;2024-01-15T14:10:51;2.50;99.90
28530;DHT22;15737;49.760;6.632;2024-01-15T14:13:16;2.60;99.90
28530;DHT22;15737;49.760;6.632;2024-01-15T14:15:42;3.20;99.90
28530;DHT22;15737;49.760;6.632;2024-01-15T14:18:08;4.10;99.90
28530;DHT22;15737;49.760;6.632;2024-01-15T14:20:33;4.30;99.90
28530;DHT22;15737;49.760;6.632;2024-01-15T14:22:59;4.20;99.90
28530;DHT22;15737;49.760;6.632;2024-01-15T14:25:24;3.90;99.90
28530;DHT22;15737;49.760;6.632;2024-01-15T14:27:50;3.60;99.90
28530;DHT22;15737;49.760;6.632;2024-01-15T14:30:16;3.30;99.90
28530;DHT22;15737;49.760;6.632;2024-01-15T14:32:42;3.30;99.90
28530;DHT22;15737;49.760;6.632;2024-01-15T14:35:08;3.10;99.90
28530;DHT22;15737;49.760;6.632;2024-01-15T14:37:36;2.90;99.90
28530;DHT22;15737;49.760;6.632;2024-01-15T14:40:02;2.80;99.90
28530;DHT22;15737;49.760;6.632;2024-01-15T14:42:29;3.00;99.90
28530;DHT22;15737;49.760;6.632;2024-01-15T14:44:54;3.00;99.90
28530;DHT22;15737;49.760;6.632;2024-01-15T14:47:20;2.80;99.90
28530;DHT22;15737;49.760;6.632;2024-01-15T14:49:49;2.60;99.90
28530;DHT22;15737;49.760;6.632;2024-01-15T14:52:22;2.60;99.90
28530;DHT22;15737;49.760;6.632;2024-01-15T14:55:05;2.60;99.90
28530;DHT22;15737;49.760;6.632;2024-01-15T14:57:30;2.70;99.90
28530;DHT22;15737;49.760;6.632;2024-01-15T14:59:56;2.80;99.90
28530;DHT22;15737;49.760;6.632;2024-01-15T15:02:23;3.00;99.90
28530;DHT22;15737;49.760;6.632;2024-01-15T15:04:49;3.30;99.90
28530;DHT22;15737;49.760;6.632;2024-01-15T15:07:26;3.50;99.90
28530;DHT22;15737;49.760;6.632;2024-01-15T15:09:52;3.70;99.90
28530;DHT22;15737;49.760;6.632;2024-01-15T15:12:17;3.80;99.90
28530;DHT22;15737;49.760;6.632;2024-01-15T15:14:43;3.50;99.90
28530;DHT22;15737;49.760;6.632;2024-01-15T15:17:09;3.00;99.90
28530;DHT22;15737;49.760;6.632;2024-01-15T15:19:37;2.60;99.90
28530;DHT22;15737;49.760;6.632;2024-01-15T15:22:03;2.30;99.90
28530;DHT22;15737;49.760;6.632;2024-01-15T15:24:29;2.00;99.90
28530;DHT22;15737;49.760;6.632;2024-01-15T15:26:54;1.90;99.90
28530;DHT22;15737;49.760;6.632;2024-01-15T15:29:20;1.80;99.90
28530;DHT22;15737;49.760;6.632;2024-01-15T15:31:45;1.70;99.90
28530;DHT22;15737;49.760;6.632;2024-01-15T15:36:48;1.60;99.90
28530;DHT22;15737;49.760;6.632;2024-01-15T15:39:13;1.50;99.90
28530;DHT22;15737;49.760;6.632;2024-01-15T15:41:43;1.30;99.90
28530;DHT22;15737;49.760;6.632;2024-01-15T15:44:09;1.20;99.90
28530;DHT22;15737;49.760;6.632;2024-01-15T15:46:35;1.00;99.90
28530;DHT22;15737;49.760;6.632;2024-01-15T15:49:01;1.00;99.90
28530;DHT22;15737;49.760;6.632;2024-01-15T15:51:45;1.00;99.90
28530;DHT22;15737;49.760;6.632;2024-01-15T15:54:11;1.00;99.90
28530;DHT22;15737;49.760;6.632;2024-01-15T15:56:36;0.90;99.90
28530;DHT22;15737;49.760;6.632;2024-01-15T15:59:05;0.90;99.90
28530;DHT22;15737;49.760;6.632;2024-01-15T16:01:32;0.90;99.90
28530;DHT22;15737;49.760;6.632;2024-01-15T16:03:58;0.80;99.90
28530;DHT22;15737;49.760;6.632;2024-01-15T16:06:40;0.70;99.90
28530;DHT22;15737;49.760;6.632;2024-01-15T16:09:07;0.70;99.90
28530;DHT22;15737;49.760;6.632;2024-01-15T16:11:32;0.80;99.90
28530;DHT22;15737;49.760;6.632;2024-01-15T16:13:58;0.80;99.90
28530;DHT22;15737;49.760;6.632;2024-01-15T16:16:23;0.80;99.90